sensor_id;sensor_type;location;lat;lon;timestamp;pressure;altitude;pressure_sealevel;temperature;humidity
21821;BME280;11073;48.586;12.066;2022-12-04T00:00:19;96103.97;;;3.80;78.02
21821;BME280;11073;48.586;12.066;2022-12-04T00:02:49;96102.53;;;3.71;77.64
21821;BME280;11073;48.586;12.066;2022-12-04T00:05:18;96080.69;;;3.74;77.95
21821;BME280;11073;48.586;12.066;2022-12-04T00:07:47;96077.63;;;3.77;77.79
21821;BME280;11073;48.586;12.066;2022-12-04T00:10:16;96079.06;;;3.79;77.83
21821;BME280;11073;48.586;12.066;2022-12-04T00:12:45;96065.06;;;3.77;77.66
21821;BME280;11073;48.586;12.066;2022-12-04T00:15:14;96076.38;;;3.79;77.58
21821;BME280;11073;48.586;12.066;2022-12-04T00:17:53;96070.19;;;3.72;77.51
21821;BME280;11073;48.586;12.066;2022-12-04T00:20:22;96075.75;;;3.64;77.49
21821;BME280;11073;48.586;12.066;2022-12-04T00:22:51;96075.94;;;3.69;77.67
21821;BME280;11073;48.586;12.066;2022-12-04T00:25:20;96073.69;;;3.73;77.64
21821;BME280;11073;48.586;12.066;2022-12-04T00:27:48;96079.88;;;3.73;77.66
21821;BME280;11073;48.586;12.066;2022-12-04T00:30:17;96089.75;;;3.66;77.46
21821;BME280;11073;48.586;12.066;2022-12-04T00:32:46;96092.84;;;3.63;77.48
21821;BME280;11073;48.586;12.066;2022-12-04T00:35:16;96088.50;;;3.69;77.73
21821;BME280;11073;48.586;12.066;2022-12-04T00:37:45;96095.09;;;3.66;77.53
21821;BME280;11073;48.586;12.066;2022-12-04T00:40:13;96104.97;;;3.59;77.51
21821;BME280;11073;48.586;12.066;2022-12-04T00:42:42;96097.56;;;3.61;77.58
21821;BME280;11073;48.586;12.066;2022-12-04T00:45:12;96098.38;;;3.62;77.57
21821;BME280;11073;48.586;12.066;2022-12-04T00:47:40;96095.69;;;3.62;77.86
21821;BME280;11073;48.586;12.066;2022-12-04T00:50:10;96095.53;;;3.70;77.71
21821;BME280;11073;48.586;12.066;2022-12-04T00:52:41;96091.63;;;3.72;77.67
21821;BME280;11073;48.586;12.066;2022-12-04T00:55:10;96083.38;;;3.74;77.66
21821;BME280;11073;48.586;12.066;2022-12-04T00:57:39;96077.41;;;3.72;77.56
21821;BME280;11073;48.586;12.066;2022-12-04T01:00:08;96082.75;;;3.72;77.52
21821;BME280;11073;48.586;12.066;2022-12-04T01:02:37;96086.88;;;3.74;77.53
21821;BME280;11073;48.586;12.066;2022-12-04T01:05:07;96088.13;;;3.72;77.41
21821;BME280;11073;48.586;12.066;2022-12-04T01:07:36;96082.75;;;3.72;77.44
21821;BME280;11073;48.586;12.066;2022-12-04T01:10:11;96071.63;;;3.75;77.56
21821;BME280;11073;48.586;12.066;2022-12-04T01:12:40;96085.66;;;3.77;77.35
21821;BME280;11073;48.586;12.066;2022-12-04T01:15:10;96090.56;;;3.73;77.46
21821;BME280;11073;48.586;12.066;2022-12-04T01:17:39;96088.91;;;3.59;77.30
21821;BME280;11073;48.586;12.066;2022-12-04T01:20:10;96086.22;;;3.59;77.46
21821;BME280;11073;48.586;12.066;2022-12-04T01:22:39;96093.22;;;3.60;77.41
21821;BME280;11073;48.586;12.066;2022-12-04T01:25:09;96093.84;;;3.49;77.51
21821;BME280;11073;48.586;12.066;2022-12-04T01:27:38;96094.88;;;3.48;77.51
21821;BME280;11073;48.586;12.066;2022-12-04T01:30:08;96089.09;;;3.44;77.59
21821;BME280;11073;48.586;12.066;2022-12-04T01:32:37;96094.66;;;3.43;77.77
21821;BME280;11073;48.586;12.066;2022-12-04T01:35:06;96087.81;;;3.40;78.00
21821;BME280;11073;48.586;12.066;2022-12-04T01:37:35;96088.03;;;3.39;77.82
21821;BME280;11073;48.586;12.066;2022-12-04T01:40:05;96084.56;;;3.45;77.95
21821;BME280;11073;48.586;12.066;2022-12-04T01:42:36;96083.97;;;3.56;78.16
21821;BME280;11073;48.586;12.066;2022-12-04T01:45:38;96081.69;;;3.59;77.96
21821;BME280;11073;48.586;12.066;2022-12-04T01:48:14;96098.38;;;3.62;77.99
21821;BME280;11073;48.586;12.066;2022-12-04T01:50:46;96098.78;;;3.58;77.98
21821;BME280;11073;48.586;12.066;2022-12-04T01:53:17;96084.81;;;3.63;78.07
21821;BME280;11073;48.586;12.066;2022-12-04T01:55:47;96083.34;;;3.67;78.10
21821;BME280;11073;48.586;12.066;2022-12-04T01:58:22;96087.28;;;3.71;77.99
21821;BME280;11073;48.586;12.066;2022-12-04T02:00:55;96081.94;;;3.71;78.12
21821;BME280;11073;48.586;12.066;2022-12-04T02:03:33;96083.16;;;3.69;77.96
21821;BME280;11073;48.586;12.066;2022-12-04T02:06:02;96074.94;;;3.70;78.00
21821;BME280;11073;48.586;12.066;2022-12-04T02:08:33;96070.81;;;3.74;78.02
21821;BME280;11073;48.586;12.066;2022-12-04T02:11:09;96057.63;;;3.73;78.02
21821;BME280;11073;48.586;12.066;2022-12-04T02:13:49;96059.88;;;3.69;78.00
21821;BME280;11073;48.586;12.066;2022-12-04T02:16:24;96053.09;;;3.73;78.01
21821;BME280;11073;48.586;12.066;2022-12-04T02:19:01;96058.66;;;3.72;78.02
21821;BME280;11073;48.586;12.066;2022-12-04T02:21:36;96055.34;;;3.76;77.99
21821;BME280;11073;48.586;12.066;2022-12-04T02:24:21;96033.09;;;3.69;78.10
21821;BME280;11073;48.586;12.066;2022-12-04T02:26:55;96034.97;;;3.75;77.96
21821;BME280;11073;48.586;12.066;2022-12-04T02:29:34;96046.72;;;3.74;78.11
21821;BME280;11073;48.586;12.066;2022-12-04T02:32:10;96034.97;;;3.69;78.11
21821;BME280;11073;48.586;12.066;2022-12-04T02:34:44;96034.13;;;3.62;78.10
21821;BME280;11073;48.586;12.066;2022-12-04T02:37:20;96044.66;;;3.56;78.18
21821;BME280;11073;48.586;12.066;2022-12-04T02:39:55;96034.53;;;3.52;78.27
21821;BME280;11073;48.586;12.066;2022-12-04T02:42:33;96039.91;;;3.52;78.34
21821;BME280;11073;48.586;12.066;2022-12-04T02:45:07;96039.28;;;3.50;78.28
21821;BME280;11073;48.586;12.066;2022-12-04T02:47:39;96031.88;;;3.52;78.62
21821;BME280;11073;48.586;12.066;2022-12-04T02:50:11;96037.63;;;3.62;78.57
21821;BME280;11073;48.586;12.066;2022-12-04T02:52:44;96037.03;;;3.67;78.54
21821;BME280;11073;48.586;12.066;2022-12-04T02:55:18;96027.13;;;3.67;78.48
21821;BME280;11073;48.586;12.066;2022-12-04T02:57:51;96025.94;;;3.70;78.34
21821;BME280;11073;48.586;12.066;2022-12-04T03:00:25;96016.22;;;3.62;78.36
21821;BME280;11073;48.586;12.066;2022-12-04T03:02:58;96008.38;;;3.60;78.29
21821;BME280;11073;48.586;12.066;2022-12-04T03:05:33;96009.22;;;3.54;78.35
21821;BME280;11073;48.586;12.066;2022-12-04T03:08:08;96005.09;;;3.52;78.37
21821;BME280;11073;48.586;12.066;2022-12-04T03:10:43;96010.44;;;3.52;78.37
21821;BME280;11073;48.586;12.066;2022-12-04T03:13:16;96007.16;;;3.43;78.34
21821;BME280;11073;48.586;12.066;2022-12-04T03:15:51;96011.91;;;3.41;78.65
21821;BME280;11073;48.586;12.066;2022-12-04T03:18:24;96007.75;;;3.39;78.60
21821;BME280;11073;48.586;12.066;2022-12-04T03:20:58;96001.00;;;3.49;78.82
21821;BME280;11073;48.586;12.066;2022-12-04T03:23:33;95980.38;;;3.43;78.68
21821;BME280;11073;48.586;12.066;2022-12-04T03:26:06;95990.28;;;3.56;78.67
21821;BME280;11073;48.586;12.066;2022-12-04T03:28:45;95995.81;;;3.54;78.69
21821;BME280;11073;48.586;12.066;2022-12-04T03:31:23;95995.84;;;3.48;78.64
21821;BME280;11073;48.586;12.066;2022-12-04T03:33:56;95988.22;;;3.45;78.61
21821;BME280;11073;48.586;12.066;2022-12-04T03:36:32;95996.25;;;3.51;78.72
21821;BME280;11073;48.586;12.066;2022-12-04T03:39:09;96000.78;;;3.44;78.63
21821;BME280;11073;48.586;12.066;2022-12-04T03:41:47;95999.72;;;3.39;78.52
21821;BME280;11073;48.586;12.066;2022-12-04T03:44:24;95999.72;;;3.39;78.81
21821;BME280;11073;48.586;12.066;2022-12-04T03:47:00;95998.09;;;3.44;78.76
21821;BME280;11073;48.586;12.066;2022-12-04T03:49:39;95996.69;;;3.55;78.77
21821;BME280;11073;48.586;12.066;2022-12-04T03:52:13;96002.41;;;3.52;78.59
21821;BME280;11073;48.586;12.066;2022-12-04T03:54:47;96005.72;;;3.54;78.61
21821;BME280;11073;48.586;12.066;2022-12-04T03:57:21;96001.59;;;3.58;78.59
21821;BME280;11073;48.586;12.066;2022-12-04T03:59:57;96010.22;;;3.47;78.57
21821;BME280;11073;48.586;12.066;2022-12-04T04:02:33;96005.69;;;3.47;78.72
21821;BME280;11073;48.586;12.066;2022-12-04T04:05:07;96000.38;;;3.41;78.72
21821;BME280;11073;48.586;12.066;2022-12-04T04:07:41;96007.75;;;3.45;78.75
21821;BME280;11073;48.586;12.066;2022-12-04T04:10:14;96009.84;;;3.50;78.56
21821;BME280;11073;48.586;12.066;2022-12-04T04:12:49;96009.84;;;3.43;78.55
21821;BME280;11073;48.586;12.066;2022-12-04T04:15:41;96005.53;;;3.49;78.62
21821;BME280;11073;48.586;12.066;2022-12-04T04:18:42;96003.47;;;3.51;78.73
21821;BME280;11073;48.586;12.066;2022-12-04T04:21:32;95996.03;;;3.53;78.55
21821;BME280;11073;48.586;12.066;2022-12-04T04:24:29;95993.34;;;3.46;78.49
21821;BME280;11073;48.586;12.066;2022-12-04T04:26:58;95995.41;;;3.44;78.52
21821;BME280;11073;48.586;12.066;2022-12-04T04:29:27;95984.28;;;3.47;78.67
21821;BME280;11073;48.586;12.066;2022-12-04T04:31:59;95988.44;;;3.50;78.46
21821;BME280;11073;48.586;12.066;2022-12-04T04:34:39;95991.72;;;3.52;78.53
21821;BME280;11073;48.586;12.066;2022-12-04T04:37:18;95984.28;;;3.54;78.58
21821;BME280;11073;48.586;12.066;2022-12-04T04:39:54;95971.56;;;3.56;78.50
21821;BME280;11073;48.586;12.066;2022-12-04T04:42:27;95964.34;;;3.56;78.39
21821;BME280;11073;48.586;12.066;2022-12-04T04:45:01;95965.16;;;3.57;78.29
21821;BME280;11073;48.586;12.066;2022-12-04T04:47:36;95979.75;;;3.54;78.32
21821;BME280;11073;48.586;12.066;2022-12-04T04:50:10;95971.75;;;3.41;78.10
21821;BME280;11073;48.586;12.066;2022-12-04T04:52:42;95989.25;;;3.44;78.32
21821;BME280;11073;48.586;12.066;2022-12-04T04:55:12;95994.41;;;3.52;78.34
21821;BME280;11073;48.586;12.066;2022-12-04T04:57:42;95987.63;;;3.56;78.29
21821;BME280;11073;48.586;12.066;2022-12-04T05:00:14;95987.63;;;3.56;78.38
21821;BME280;11073;48.586;12.066;2022-12-04T05:02:44;95989.03;;;3.58;78.23
21821;BME280;11073;48.586;12.066;2022-12-04T05:05:16;95991.72;;;3.58;78.32
21821;BME280;11073;48.586;12.066;2022-12-04T05:07:45;95992.31;;;3.60;78.37
21821;BME280;11073;48.586;12.066;2022-12-04T05:10:14;95991.13;;;3.63;78.19
21821;BME280;11073;48.586;12.066;2022-12-04T05:12:44;95993.38;;;3.66;78.16
21821;BME280;11073;48.586;12.066;2022-12-04T05:15:13;95988.84;;;3.60;78.14
21821;BME280;11073;48.586;12.066;2022-12-04T05:17:41;95994.19;;;3.60;78.10
21821;BME280;11073;48.586;12.066;2022-12-04T05:20:10;95997.28;;;3.64;78.12
21821;BME280;11073;48.586;12.066;2022-12-04T05:22:40;95995.66;;;3.63;78.21
21821;BME280;11073;48.586;12.066;2022-12-04T05:25:09;96003.69;;;3.56;78.08
21821;BME280;11073;48.586;12.066;2022-12-04T05:27:38;96001.41;;;3.59;78.17
21821;BME280;11073;48.586;12.066;2022-12-04T05:30:09;95984.72;;;3.51;78.02
21821;BME280;11073;48.586;12.066;2022-12-04T05:32:38;96000.34;;;3.60;78.19
21821;BME280;11073;48.586;12.066;2022-12-04T05:35:07;96001.41;;;3.59;78.18
21821;BME280;11073;48.586;12.066;2022-12-04T05:37:39;95992.53;;;3.59;78.06
21821;BME280;11073;48.586;12.066;2022-12-04T05:40:10;96002.44;;;3.65;78.22
21821;BME280;11073;48.586;12.066;2022-12-04T05:42:38;95995.00;;;3.67;78.06
21821;BME280;11073;48.586;12.066;2022-12-04T05:45:07;95990.69;;;3.59;78.16
21821;BME280;11073;48.586;12.066;2022-12-04T05:47:37;95990.06;;;3.64;78.23
21821;BME280;11073;48.586;12.066;2022-12-04T05:50:07;95991.72;;;3.65;78.14
21821;BME280;11073;48.586;12.066;2022-12-04T05:52:36;95990.91;;;3.65;78.15
21821;BME280;11073;48.586;12.066;2022-12-04T05:55:05;95990.47;;;3.61;78.30
21821;BME280;11073;48.586;12.066;2022-12-04T05:57:36;95981.00;;;3.65;78.36
21821;BME280;11073;48.586;12.066;2022-12-04T06:00:06;95978.72;;;3.69;78.29
21821;BME280;11073;48.586;12.066;2022-12-04T06:02:37;95943.53;;;3.52;78.27
21821;BME280;11073;48.586;12.066;2022-12-04T06:05:06;95981.22;;;3.70;78.23
21821;BME280;11073;48.586;12.066;2022-12-04T06:07:35;95972.78;;;3.67;78.28
21821;BME280;11073;48.586;12.066;2022-12-04T06:10:05;95983.91;;;3.70;78.34
21821;BME280;11073;48.586;12.066;2022-12-04T06:12:35;95981.41;;;3.69;78.32
21821;BME280;11073;48.586;12.066;2022-12-04T06:15:05;95983.25;;;3.68;78.23
21821;BME280;11073;48.586;12.066;2022-12-04T06:17:34;95992.94;;;3.69;78.35
21821;BME280;11073;48.586;12.066;2022-12-04T06:20:04;95991.72;;;3.65;78.44
21821;BME280;11073;48.586;12.066;2022-12-04T06:22:38;96008.41;;;3.74;78.38
21821;BME280;11073;48.586;12.066;2022-12-04T06:25:07;95990.25;;;3.69;78.40
21821;BME280;11073;48.586;12.066;2022-12-04T06:27:37;96004.91;;;3.73;78.38
21821;BME280;11073;48.586;12.066;2022-12-04T06:30:07;96003.66;;;3.76;78.49
21821;BME280;11073;48.586;12.066;2022-12-04T06:32:36;95990.09;;;3.77;78.42
21821;BME280;11073;48.586;12.066;2022-12-04T06:35:05;95988.84;;;3.73;78.44
21821;BME280;11073;48.586;12.066;2022-12-04T06:37:34;95992.34;;;3.67;78.36
21821;BME280;11073;48.586;12.066;2022-12-04T06:40:04;95987.19;;;3.66;78.56
21821;BME280;11073;48.586;12.066;2022-12-04T06:42:33;95989.88;;;3.66;78.43
21821;BME280;11073;48.586;12.066;2022-12-04T06:45:04;95999.53;;;3.60;78.64
21821;BME280;11073;48.586;12.066;2022-12-04T06:47:34;95999.16;;;3.56;78.64
21821;BME280;11073;48.586;12.066;2022-12-04T06:50:03;96001.19;;;3.54;78.73
21821;BME280;11073;48.586;12.066;2022-12-04T06:52:32;96003.25;;;3.52;78.73
21821;BME280;11073;48.586;12.066;2022-12-04T06:55:01;95998.09;;;3.57;78.84
21821;BME280;11073;48.586;12.066;2022-12-04T06:57:30;96000.78;;;3.64;78.88
21821;BME280;11073;48.586;12.066;2022-12-04T06:59:58;96006.53;;;3.68;78.83
21821;BME280;11073;48.586;12.066;2022-12-04T07:02:28;95994.41;;;3.65;78.77
21821;BME280;11073;48.586;12.066;2022-12-04T07:04:57;95980.59;;;3.68;78.71
21821;BME280;11073;48.586;12.066;2022-12-04T07:07:25;95958.78;;;3.71;78.62
21821;BME280;11073;48.586;12.066;2022-12-04T07:09:57;95975.22;;;3.75;78.68
21821;BME280;11073;48.586;12.066;2022-12-04T07:12:26;95980.38;;;3.76;78.49
21821;BME280;11073;48.586;12.066;2022-12-04T07:14:54;95998.28;;;3.69;78.28
21821;BME280;11073;48.586;12.066;2022-12-04T07:17:23;95998.94;;;3.58;78.34
21821;BME280;11073;48.586;12.066;2022-12-04T07:19:53;95983.91;;;3.50;78.62
21821;BME280;11073;48.586;12.066;2022-12-04T07:22:22;96006.72;;;3.46;78.71
21821;BME280;11073;48.586;12.066;2022-12-04T07:24:51;95999.94;;;3.44;78.77
21821;BME280;11073;48.586;12.066;2022-12-04T07:27:19;95997.06;;;3.52;78.86
21821;BME280;11073;48.586;12.066;2022-12-04T07:29:50;95995.22;;;3.52;78.96
21821;BME280;11073;48.586;12.066;2022-12-04T07:32:18;95983.69;;;3.58;79.02
21821;BME280;11073;48.586;12.066;2022-12-04T07:34:47;95979.75;;;3.54;78.82
21821;BME280;11073;48.586;12.066;2022-12-04T07:37:17;95982.88;;;3.51;79.08
21821;BME280;11073;48.586;12.066;2022-12-04T07:39:45;95989.25;;;3.57;79.11
21821;BME280;11073;48.586;12.066;2022-12-04T07:42:14;96009.22;;;3.54;79.13
21821;BME280;11073;48.586;12.066;2022-12-04T07:44:50;96016.84;;;3.51;79.09
21821;BME280;11073;48.586;12.066;2022-12-04T07:47:18;96019.31;;;3.52;79.20
21821;BME280;11073;48.586;12.066;2022-12-04T07:49:47;96020.53;;;3.50;79.23
21821;BME280;11073;48.586;12.066;2022-12-04T07:52:17;96013.13;;;3.52;79.40
21821;BME280;11073;48.586;12.066;2022-12-04T07:54:46;96022.59;;;3.54;79.43
21821;BME280;11073;48.586;12.066;2022-12-04T07:57:15;96015.81;;;3.58;79.55
21821;BME280;11073;48.586;12.066;2022-12-04T07:59:43;96004.91;;;3.67;79.68
21821;BME280;11073;48.586;12.066;2022-12-04T08:02:12;95988.84;;;3.73;79.64
21821;BME280;11073;48.586;12.066;2022-12-04T08:04:41;95975.03;;;3.76;79.61
21821;BME280;11073;48.586;12.066;2022-12-04T08:07:10;95964.31;;;3.76;79.56
21821;BME280;11073;48.586;12.066;2022-12-04T08:09:40;95960.63;;;3.77;79.50
21821;BME280;11073;48.586;12.066;2022-12-04T08:12:09;95977.50;;;3.78;79.50
21821;BME280;11073;48.586;12.066;2022-12-04T08:14:37;95976.88;;;3.69;79.45
21821;BME280;11073;48.586;12.066;2022-12-04T08:17:06;95970.31;;;3.65;79.58
21821;BME280;11073;48.586;12.066;2022-12-04T08:19:34;95978.13;;;3.73;79.62
21821;BME280;11073;48.586;12.066;2022-12-04T08:22:03;95967.03;;;3.70;79.64
21821;BME280;11073;48.586;12.066;2022-12-04T08:24:32;95969.28;;;3.79;79.73
21821;BME280;11073;48.586;12.066;2022-12-04T08:27:02;95973.81;;;3.85;79.81
21821;BME280;11073;48.586;12.066;2022-12-04T08:29:30;95981.00;;;3.92;79.63
21821;BME280;11073;48.586;12.066;2022-12-04T08:31:59;95986.16;;;3.86;79.60
21821;BME280;11073;48.586;12.066;2022-12-04T08:34:28;95976.25;;;3.80;79.74
21821;BME280;11073;48.586;12.066;2022-12-04T08:36:56;95994.41;;;3.85;79.87
21821;BME280;11073;48.586;12.066;2022-12-04T08:39:25;95989.66;;;3.87;79.81
21821;BME280;11073;48.586;12.066;2022-12-04T08:41:53;95996.44;;;3.96;79.79
21821;BME280;11073;48.586;12.066;2022-12-04T08:44:25;95993.53;;;3.98;79.75
21821;BME280;11073;48.586;12.066;2022-12-04T08:46:53;96000.97;;;3.89;79.61
21821;BME280;11073;48.586;12.066;2022-12-04T08:49:22;96013.53;;;3.82;79.76
21821;BME280;11073;48.586;12.066;2022-12-04T08:51:51;96013.97;;;3.72;79.81
21821;BME280;11073;48.586;12.066;2022-12-04T08:54:20;96009.44;;;3.79;79.86
21821;BME280;11073;48.586;12.066;2022-12-04T08:56:49;96003.25;;;3.92;80.04
21821;BME280;11073;48.586;12.066;2022-12-04T08:59:17;95996.22;;;4.04;80.00
21821;BME280;11073;48.586;12.066;2022-12-04T09:01:50;96005.28;;;4.10;80.02
21821;BME280;11073;48.586;12.066;2022-12-04T09:04:18;96007.34;;;4.14;79.82
21821;BME280;11073;48.586;12.066;2022-12-04T09:06:48;96010.63;;;4.23;79.74
21821;BME280;11073;48.586;12.066;2022-12-04T09:09:16;96017.19;;;4.27;79.76
21821;BME280;11073;48.586;12.066;2022-12-04T09:11:45;96024.44;;;4.20;79.42
21821;BME280;11073;48.586;12.066;2022-12-04T09:14:13;96024.66;;;4.05;79.44
21821;BME280;11073;48.586;12.066;2022-12-04T09:16:42;96032.91;;;4.04;79.45
21821;BME280;11073;48.586;12.066;2022-12-04T09:19:12;96033.94;;;4.03;79.59
21821;BME280;11073;48.586;12.066;2022-12-04T09:21:41;96013.94;;;4.05;79.71
21821;BME280;11073;48.586;12.066;2022-12-04T09:24:09;96003.84;;;4.14;79.82
21821;BME280;11073;48.586;12.066;2022-12-04T09:26:38;95997.44;;;4.15;79.85
21821;BME280;11073;48.586;12.066;2022-12-04T09:29:08;95992.50;;;4.12;79.70
21821;BME280;11073;48.586;12.066;2022-12-04T09:31:38;95992.25;;;4.27;79.78
21821;BME280;11073;48.586;12.066;2022-12-04T09:34:06;95988.13;;;4.37;79.90
21821;BME280;11073;48.586;12.066;2022-12-04T09:36:37;95975.31;;;4.46;79.73
21821;BME280;11073;48.586;12.066;2022-12-04T09:39:06;95962.72;;;4.47;79.72
21821;BME280;11073;48.586;12.066;2022-12-04T09:42:00;95967.88;;;4.48;79.44
21821;BME280;11073;48.586;12.066;2022-12-04T09:44:33;95974.09;;;4.42;79.56
21821;BME280;11073;48.586;12.066;2022-12-04T09:47:07;95969.13;;;4.46;79.52
21821;BME280;11073;48.586;12.066;2022-12-04T09:49:39;95969.72;;;4.48;79.41
21821;BME280;11073;48.586;12.066;2022-12-04T09:52:20;95966.47;;;4.32;79.34
21821;BME280;11073;48.586;12.066;2022-12-04T09:54:51;95954.72;;;4.33;79.68
21821;BME280;11073;48.586;12.066;2022-12-04T09:57:25;95935.97;;;4.33;79.58
21821;BME280;11073;48.586;12.066;2022-12-04T09:59:56;95949.94;;;4.49;79.52
21821;BME280;11073;48.586;12.066;2022-12-04T10:02:34;95952.22;;;4.45;79.40
21821;BME280;11073;48.586;12.066;2022-12-04T10:05:05;95956.97;;;4.43;79.46
21821;BME280;11073;48.586;12.066;2022-12-04T10:07:43;95949.34;;;4.40;79.43
21821;BME280;11073;48.586;12.066;2022-12-04T10:10:20;95944.78;;;4.47;79.64
21821;BME280;11073;48.586;12.066;2022-12-04T10:12:58;95952.47;;;4.37;79.46
21821;BME280;11073;48.586;12.066;2022-12-04T10:15:33;95934.72;;;4.42;79.74
21821;BME280;11073;48.586;12.066;2022-12-04T10:18:21;95939.19;;;4.55;79.73
21821;BME280;11073;48.586;12.066;2022-12-04T10:21:02;95924.28;;;4.66;79.60
21821;BME280;11073;48.586;12.066;2022-12-04T10:23:45;95920.13;;;4.70;79.61
21821;BME280;11073;48.586;12.066;2022-12-04T10:26:21;95932.75;;;4.63;79.56
21821;BME280;11073;48.586;12.066;2022-12-04T10:28:54;95922.09;;;4.50;79.58
21821;BME280;11073;48.586;12.066;2022-12-04T10:31:26;95924.69;;;4.63;79.59
21821;BME280;11073;48.586;12.066;2022-12-04T10:33:59;95920.81;;;4.59;79.46
21821;BME280;11073;48.586;12.066;2022-12-04T10:36:31;95904.94;;;4.64;79.60
21821;BME280;11073;48.586;12.066;2022-12-04T10:39:06;95926.50;;;4.76;79.75
21821;BME280;11073;48.586;12.066;2022-12-04T10:41:42;95916.72;;;4.56;79.25
21821;BME280;11073;48.586;12.066;2022-12-04T10:44:15;95906.97;;;4.62;79.49
21821;BME280;11073;48.586;12.066;2022-12-04T10:46:45;95894.75;;;4.73;79.64
21821;BME280;11073;48.586;12.066;2022-12-04T10:49:16;95888.06;;;4.88;79.69
21821;BME280;11073;48.586;12.066;2022-12-04T10:51:47;95891.94;;;4.92;79.40
21821;BME280;11073;48.586;12.066;2022-12-04T10:54:21;95878.13;;;4.95;79.36
21821;BME280;11073;48.586;12.066;2022-12-04T10:56:54;95869.56;;;5.05;79.38
21821;BME280;11073;48.586;12.066;2022-12-04T10:59:23;95872.47;;;5.04;79.13
21821;BME280;11073;48.586;12.066;2022-12-04T11:01:59;95869.19;;;5.02;79.30
21821;BME280;11073;48.586;12.066;2022-12-04T11:04:33;95875.28;;;5.15;79.47
21821;BME280;11073;48.586;12.066;2022-12-04T11:07:04;95880.22;;;5.18;79.30
21821;BME280;11073;48.586;12.066;2022-12-04T11:09:36;95878.25;;;5.32;79.37
21821;BME280;11073;48.586;12.066;2022-12-04T11:12:08;95880.00;;;5.45;79.17
21821;BME280;11073;48.586;12.066;2022-12-04T11:14:37;95865.03;;;5.56;79.14
21821;BME280;11073;48.586;12.066;2022-12-04T11:17:16;95875.28;;;5.65;78.92
21821;BME280;11073;48.586;12.066;2022-12-04T11:19:45;95904.19;;;5.63;78.74
21821;BME280;11073;48.586;12.066;2022-12-04T11:22:15;95877.56;;;5.62;78.70
21821;BME280;11073;48.586;12.066;2022-12-04T11:24:51;95868.13;;;5.77;78.62
21821;BME280;11073;48.586;12.066;2022-12-04T11:27:23;95859.31;;;5.95;78.52
21821;BME280;11073;48.586;12.066;2022-12-04T11:29:54;95860.56;;;6.11;78.26
21821;BME280;11073;48.586;12.066;2022-12-04T11:32:26;95847.47;;;6.15;78.28
21821;BME280;11073;48.586;12.066;2022-12-04T11:34:58;95867.47;;;6.37;78.16
21821;BME280;11073;48.586;12.066;2022-12-04T11:37:31;95860.94;;;6.63;78.05
21821;BME280;11073;48.586;12.066;2022-12-04T11:40:14;95869.16;;;6.68;77.52
21821;BME280;11073;48.586;12.066;2022-12-04T11:42:56;95853.91;;;6.92;77.32
21821;BME280;11073;48.586;12.066;2022-12-04T11:45:25;95842.75;;;7.18;77.17
21821;BME280;11073;48.586;12.066;2022-12-04T11:47:55;95865.22;;;7.24;76.65
21821;BME280;11073;48.586;12.066;2022-12-04T11:50:30;95855.28;;;7.25;76.50
21821;BME280;11073;48.586;12.066;2022-12-04T11:53:06;95856.94;;;7.26;76.29
21821;BME280;11073;48.586;12.066;2022-12-04T11:55:47;95848.69;;;7.09;75.89
21821;BME280;11073;48.586;12.066;2022-12-04T11:58:32;95847.75;;;7.03;75.62
21821;BME280;11073;48.586;12.066;2022-12-04T12:01:22;95840.22;;;6.94;75.61
21821;BME280;11073;48.586;12.066;2022-12-04T12:04:18;95842.56;;;6.90;75.59
21821;BME280;11073;48.586;12.066;2022-12-04T12:06:58;95839.06;;;6.89;75.69
21821;BME280;11073;48.586;12.066;2022-12-04T12:09:36;95843.63;;;6.89;75.76
21821;BME280;11073;48.586;12.066;2022-12-04T12:12:14;95841.50;;;6.91;75.57
21821;BME280;11073;48.586;12.066;2022-12-04T12:15:02;95845.50;;;6.88;75.67
21821;BME280;11073;48.586;12.066;2022-12-04T12:17:37;95832.06;;;7.00;75.71
21821;BME280;11073;48.586;12.066;2022-12-04T12:20:14;95832.31;;;7.22;75.56
21821;BME280;11073;48.586;12.066;2022-12-04T12:22:57;95831.06;;;7.60;75.54
21821;BME280;11073;48.586;12.066;2022-12-04T12:25:32;95817.81;;;7.93;74.99
21821;BME280;11073;48.586;12.066;2022-12-04T12:28:18;95801.25;;;8.13;74.61
21821;BME280;11073;48.586;12.066;2022-12-04T12:31:00;95803.22;;;8.18;74.42
21821;BME280;11073;48.586;12.066;2022-12-04T12:33:35;95794.75;;;8.38;73.95
21821;BME280;11073;48.586;12.066;2022-12-04T12:36:09;95781.09;;;8.56;73.63
21821;BME280;11073;48.586;12.066;2022-12-04T12:38:42;95787.53;;;8.55;73.09
21821;BME280;11073;48.586;12.066;2022-12-04T12:41:13;95784.00;;;8.54;73.29
21821;BME280;11073;48.586;12.066;2022-12-04T12:43:46;95776.00;;;8.60;73.34
21821;BME280;11073;48.586;12.066;2022-12-04T12:46:21;95780.53;;;8.71;72.86
21821;BME280;11073;48.586;12.066;2022-12-04T12:48:59;95792.63;;;8.68;72.92
21821;BME280;11073;48.586;12.066;2022-12-04T12:51:33;95783.84;;;8.61;72.51
21821;BME280;11073;48.586;12.066;2022-12-04T12:54:13;95772.31;;;8.49;72.66
21821;BME280;11073;48.586;12.066;2022-12-04T12:56:47;95789.22;;;8.44;72.47
21821;BME280;11073;48.586;12.066;2022-12-04T12:59:23;95776.94;;;8.37;72.28
21821;BME280;11073;48.586;12.066;2022-12-04T13:01:55;95775.28;;;8.36;72.57
21821;BME280;11073;48.586;12.066;2022-12-04T13:04:34;95773.88;;;8.33;72.55
21821;BME280;11073;48.586;12.066;2022-12-04T13:07:19;95778.09;;;8.29;72.46
21821;BME280;11073;48.586;12.066;2022-12-04T13:09:55;95772.94;;;8.27;72.54
21821;BME280;11073;48.586;12.066;2022-12-04T13:12:28;95769.09;;;8.23;72.42
21821;BME280;11073;48.586;12.066;2022-12-04T13:15:00;95761.72;;;8.19;72.37
21821;BME280;11073;48.586;12.066;2022-12-04T13:17:32;95764.78;;;8.11;72.12
21821;BME280;11073;48.586;12.066;2022-12-04T13:20:11;95761.19;;;8.05;72.34
21821;BME280;11073;48.586;12.066;2022-12-04T13:22:50;95761.78;;;7.95;72.03
21821;BME280;11073;48.586;12.066;2022-12-04T13:25:30;95761.22;;;7.82;72.08
21821;BME280;11073;48.586;12.066;2022-12-04T13:28:12;95758.44;;;7.77;72.13